Corning, AR

5:40 PM CST on December 11, 2017 (GMT -0600)
Corning

Weather History for K4M9 - May, 2014

Change the Weather History Date:

Monday, May 5, 2014

  Actual Average (KARG) Record (KARG)
Temperature  
Mean Temperature 75 °F -  
Max Temperature 86 °F 75 °F 91 °F (2012)
Min Temperature 64 °F 55 °F 44 °F (2005)
Cooling Degree Days 10    
Growing Degree Days 25 (Base 50)    
Moisture  
Dew Point 51 °F    
Average Humidity 45    
Maximum Humidity 68    
Minimum Humidity 27    
Precipitation  
Precipitation 0.00 in - - ()
Sea Level Pressure  
Sea Level Pressure 29.84 in    
Wind  
Wind Speed 16 mph (SSW)    
Max Wind Speed 26 mph    
Max Gust Speed 32 mph    
Visibility 10 miles    
Events      
Averages and records for this station are not official NWS values.
T = Trace of Precipitation, MM = Missing Value Source: NWS Daily Summary

Daily Weather History Graph

Daily Weather History Graph

Search for Another Location

Airport or City:

Trip Planner

Search our weather history database for the weather conditions in past years. The results will help you decide how hot, cold, wet, or windy it might be!

Date:

Astronomy

May. 05, 2014 Rise Set
Actual Time 6:05 AM CDT 7:54 PM CDT
Civil Twilight 5:37 AM CDT 8:22 PM CDT
Nautical Twilight 5:03 AM CDT 8:55 PM CDT
Astronomical Twilight 4:27 AM CDT 9:32 PM CDT
Moon 11:24 AM CDT (5/5) 12:38 AM CDT (5/5)
Length of Visible Light 14h 44m
Length of Day
13h 48m
Waxing Crescent, 37% of the Moon is Illuminated
May 5
Waxing Crescent
May 6
First Quarter
May 14
Full
May 21
Last Quarter
May 28
New

Hourly Weather History & Observations

Time (CDT) Temp. Dew Point Humidity Pressure Visibility Wind Dir Wind Speed Gust Speed Precip Events Conditions
12:15 AM 71.6 °F 53.6 °F 53% 29.88 in 10.0 mi SSW 13.8 mph - N/A   Clear
12:35 AM 69.8 °F 53.6 °F 56% 29.88 in 10.0 mi SSW 13.8 mph - N/A   Clear
12:55 AM 71.6 °F 53.6 °F 53% 29.88 in 10.0 mi SSW 15.0 mph - N/A   Clear
1:15 AM 69.8 °F 53.6 °F 56% 29.88 in 10.0 mi SSW 13.8 mph - N/A   Clear
1:35 AM 69.8 °F 53.6 °F 56% 29.87 in 10.0 mi SSW 15.0 mph - N/A   Clear
1:55 AM 69.8 °F 53.6 °F 56% 29.87 in 10.0 mi SSW 16.1 mph - N/A   Clear
2:15 AM 71.6 °F 53.6 °F 53% 29.86 in 10.0 mi SSW 15.0 mph - N/A   Clear
2:35 AM 68.0 °F 53.6 °F 60% 29.86 in 10.0 mi SSW 15.0 mph - N/A   Clear
2:55 AM 69.8 °F 51.8 °F 53% 29.86 in 10.0 mi SSW 16.1 mph - N/A   Clear
3:15 AM 68.0 °F 53.6 °F 60% 29.86 in 10.0 mi SSW 15.0 mph - N/A   Clear
3:55 AM 66.2 °F 53.6 °F 64% 29.87 in 10.0 mi SSW 13.8 mph - N/A   Clear
4:15 AM 66.2 °F 53.6 °F 64% 29.87 in 10.0 mi SSW 13.8 mph - N/A   Clear
4:35 AM 66.2 °F 53.6 °F 64% 29.87 in 10.0 mi SSW 12.7 mph - N/A   Clear
4:55 AM 64.4 °F 53.6 °F 68% 29.86 in 10.0 mi SSW 12.7 mph - N/A   Clear
5:15 AM 64.4 °F 53.6 °F 68% 29.87 in 10.0 mi SSW 10.4 mph - N/A   Clear
5:35 AM 64.4 °F 51.8 °F 64% 29.87 in 10.0 mi SSW 11.5 mph - N/A   Clear
5:55 AM 64.4 °F 53.6 °F 68% 29.87 in 10.0 mi SSW 12.7 mph - N/A   Clear
6:15 AM 64.4 °F 53.6 °F 68% 29.87 in 10.0 mi SSW 13.8 mph - N/A   Clear
6:35 AM 64.4 °F 53.6 °F 68% 29.88 in 10.0 mi SSW 12.7 mph - N/A   Clear
6:55 AM 64.4 °F 53.6 °F 68% 29.89 in 10.0 mi SSW 11.5 mph - N/A   Clear
7:15 AM 66.2 °F 53.6 °F 64% 29.89 in 10.0 mi SSW 12.7 mph - N/A   Clear
7:35 AM 68.0 °F 53.6 °F 60% 29.90 in 10.0 mi SSW 12.7 mph - N/A   Clear
7:55 AM 69.8 °F 53.6 °F 56% 29.89 in 10.0 mi SSW 17.3 mph - N/A   Clear
8:15 AM 71.6 °F 53.6 °F 53% 29.89 in 10.0 mi SSW 18.4 mph 21.9 mph N/A   Clear
8:35 AM 71.6 °F 53.6 °F 53% 29.88 in 10.0 mi SSW 16.1 mph 23.0 mph N/A   Clear
8:55 AM 73.4 °F 53.6 °F 50% 29.89 in 10.0 mi SW 18.4 mph - N/A   Clear
9:15 AM 73.4 °F 53.6 °F 50% 29.89 in 10.0 mi SW 17.3 mph 23.0 mph N/A   Clear
9:35 AM 75.2 °F 53.6 °F 47% 29.88 in 10.0 mi SW 18.4 mph 23.0 mph N/A   Clear
9:55 AM 75.2 °F 53.6 °F 47% 29.88 in 10.0 mi SW 16.1 mph 24.2 mph N/A   Clear
10:15 AM 77.0 °F 53.6 °F 44% 29.88 in 10.0 mi SW 15.0 mph 25.3 mph N/A   Clear
10:35 AM 78.8 °F 53.6 °F 42% 29.88 in 9.0 mi SW 16.1 mph 24.2 mph N/A   Clear
10:55 AM 78.8 °F 51.8 °F 39% 29.88 in 10.0 mi SW 18.4 mph 24.2 mph N/A   Clear
11:15 AM 80.6 °F 51.8 °F 37% 29.88 in 10.0 mi SW 17.3 mph 25.3 mph N/A   Clear
11:35 AM 82.4 °F 51.8 °F 35% 29.88 in 10.0 mi SSW 20.7 mph 27.6 mph N/A   Unknown
11:55 AM 82.4 °F 51.8 °F 35% 29.87 in 10.0 mi SSW 19.6 mph - N/A   Unknown
12:15 PM 84.2 °F 50.0 °F 30% 29.86 in 10.0 mi SW 19.6 mph 26.5 mph N/A   Unknown
12:35 PM 84.2 °F 50.0 °F 30% 29.85 in 10.0 mi SW 21.9 mph 27.6 mph N/A   Unknown
12:55 PM 84.2 °F 50.0 °F 30% 29.85 in 10.0 mi SSW 25.3 mph 29.9 mph N/A   Unknown
1:15 PM 86.0 °F 51.8 °F 31% 29.85 in 10.0 mi SSW 18.4 mph 23.0 mph N/A   Unknown
1:35 PM 86.0 °F 51.8 °F 31% 29.85 in 10.0 mi SSW 21.9 mph 26.5 mph N/A   Unknown
1:55 PM 86.0 °F 51.8 °F 31% 29.84 in 10.0 mi SSW 19.6 mph 24.2 mph N/A   Clear
2:15 PM 86.0 °F 50.0 °F 29% 29.84 in 10.0 mi SSW 19.6 mph 29.9 mph N/A   Clear
2:35 PM 86.0 °F 50.0 °F 29% 29.83 in 10.0 mi SSW 23.0 mph 27.6 mph N/A   Clear
2:55 PM 86.0 °F 50.0 °F 29% 29.82 in 10.0 mi SSW 19.6 mph 25.3 mph N/A   Clear
3:15 PM 86.0 °F 51.8 °F 31% 29.81 in 7.0 mi SSW 21.9 mph 27.6 mph N/A   Clear
3:35 PM 86.0 °F 50.0 °F 29% 29.80 in 9.0 mi South 20.7 mph 28.8 mph N/A   Clear
3:55 PM 86.0 °F 50.0 °F 29% 29.79 in 9.0 mi South 21.9 mph 31.1 mph N/A   Clear
4:15 PM 86.0 °F 50.0 °F 29% 29.78 in 10.0 mi SSW 23.0 mph 32.2 mph N/A   Clear
4:35 PM 86.0 °F 50.0 °F 29% 29.78 in 10.0 mi SSW 21.9 mph 32.2 mph N/A   Clear
4:55 PM 86.0 °F 48.2 °F 27% 29.77 in 10.0 mi South 21.9 mph 31.1 mph N/A   Clear
5:15 PM 86.0 °F 48.2 °F 27% 29.77 in 10.0 mi SSW 26.5 mph 32.2 mph N/A   Clear
5:35 PM 86.0 °F 48.2 °F 27% 29.77 in 10.0 mi SSW 21.9 mph 29.9 mph N/A   Clear
5:55 PM 84.2 °F 48.2 °F 29% 29.76 in 10.0 mi SSW 23.0 mph 28.8 mph N/A   Clear
6:15 PM 84.2 °F 46.4 °F 27% 29.76 in 10.0 mi SSW 20.7 mph 29.9 mph N/A   Clear
6:35 PM 82.4 °F 46.4 °F 28% 29.76 in 10.0 mi SSW 17.3 mph 29.9 mph N/A   Clear
6:55 PM 82.4 °F 46.4 °F 28% 29.76 in 10.0 mi SSW 17.3 mph 28.8 mph N/A   Clear
7:15 PM 80.6 °F 48.2 °F 32% 29.76 in 10.0 mi SSW 13.8 mph 21.9 mph N/A   Clear
7:35 PM 77.0 °F 48.2 °F 36% 29.77 in 10.0 mi SSW 13.8 mph - N/A   Clear
7:55 PM 77.0 °F 48.2 °F 36% 29.77 in 10.0 mi SSW 15.0 mph 20.7 mph N/A   Clear
8:15 PM 75.2 °F 48.2 °F 38% 29.77 in 10.0 mi SSW 15.0 mph - N/A   Clear
8:35 PM 75.2 °F 48.2 °F 38% 29.78 in 10.0 mi SSW 13.8 mph - N/A   Clear
8:55 PM 73.4 °F 48.2 °F 41% 29.79 in 10.0 mi SSW 13.8 mph - N/A   Clear
9:15 PM 73.4 °F 48.2 °F 41% 29.79 in 10.0 mi SSW 11.5 mph - N/A   Clear
9:35 PM 71.6 °F 48.2 °F 43% 29.80 in 10.0 mi SSW 12.7 mph - N/A   Clear
9:55 PM 71.6 °F 50.0 °F 46% 29.81 in 10.0 mi SSW 11.5 mph - N/A   Clear
10:15 PM 71.6 °F 50.0 °F 46% 29.82 in 10.0 mi SSW 11.5 mph - N/A   Clear
10:35 PM 69.8 °F 50.0 °F 49% 29.82 in 10.0 mi SSW 10.4 mph - N/A   Clear
10:55 PM 69.8 °F 51.8 °F 53% 29.82 in 10.0 mi SSW 8.1 mph - N/A   Clear
11:15 PM 69.8 °F 51.8 °F 53% 29.83 in 10.0 mi SW 9.2 mph - N/A   Clear
11:35 PM 68.0 °F 53.6 °F 60% 29.83 in 10.0 mi SW 9.2 mph - N/A   Clear